createdAt,value
2022-11-01T00:00:13.481Z,1011.24
2022-11-01T00:01:13.423Z,1011.29
2022-11-01T00:02:13.467Z,1011.29
2022-11-01T00:03:13.893Z,1011.36
2022-11-01T00:04:13.632Z,1011.28
2022-11-01T00:05:13.569Z,1011.34
2022-11-01T00:06:13.610Z,1011.33
2022-11-01T00:07:13.469Z,1011.30
2022-11-01T00:08:13.395Z,1011.31
2022-11-01T00:09:13.324Z,1011.35
2022-11-01T00:10:13.291Z,1011.19
2022-11-01T00:11:13.444Z,1011.35
2022-11-01T00:12:13.377Z,1011.29
2022-11-01T00:13:13.221Z,1011.32
2022-11-01T00:14:13.218Z,1011.23
2022-11-01T00:15:13.142Z,1011.33
2022-11-01T00:16:13.262Z,1011.26
2022-11-01T00:17:13.247Z,1011.22
2022-11-01T00:18:13.238Z,1011.17
2022-11-01T00:19:13.172Z,1011.16
2022-11-01T00:20:13.228Z,1011.27
2022-11-01T00:21:13.203Z,1011.19
2022-11-01T00:22:13.523Z,1011.25
2022-11-01T00:23:13.454Z,1011.31
2022-11-01T00:24:13.381Z,1011.26
2022-11-01T00:25:13.452Z,1011.17
2022-11-01T00:26:13.661Z,1011.19
2022-11-01T00:27:13.518Z,1011.18
2022-11-01T00:28:13.438Z,1011.09
2022-11-01T00:29:13.587Z,1011.13
2022-11-01T00:30:13.473Z,1011.16
2022-11-01T00:31:13.561Z,1011.25
2022-11-01T00:32:13.402Z,1011.16
2022-11-01T00:33:13.234Z,1011.15
2022-11-01T00:34:13.150Z,1011.16
2022-11-01T00:35:13.042Z,1011.13
2022-11-01T00:36:12.957Z,1011.09
2022-11-01T00:37:13.014Z,1011.15
2022-11-01T00:38:13.023Z,1011.08
2022-11-01T00:39:12.950Z,1011.11
2022-11-01T00:40:13.061Z,1011.10
2022-11-01T00:41:12.950Z,1011.03
2022-11-01T00:42:12.938Z,1011.03
2022-11-01T00:43:13.260Z,1011.04
2022-11-01T00:44:13.377Z,1010.97
2022-11-01T00:45:13.304Z,1010.99
2022-11-01T00:46:13.507Z,1010.94
2022-11-01T00:47:13.614Z,1010.99
2022-11-01T00:48:14.083Z,1010.87
2022-11-01T00:49:13.262Z,1010.76
2022-11-01T00:50:13.494Z,1010.81
2022-11-01T00:51:13.355Z,1010.87
2022-11-01T00:52:13.250Z,1010.90
2022-11-01T00:53:13.195Z,1010.99
2022-11-01T00:54:13.084Z,1011.22
2022-11-01T00:55:13.029Z,1011.19
2022-11-01T00:56:13.096Z,1011.19
2022-11-01T00:57:12.979Z,1011.19
2022-11-01T00:58:13.339Z,1011.23
2022-11-01T00:59:13.633Z,1011.30
2022-11-01T01:00:13.743Z,1011.22
2022-11-01T01:01:13.835Z,1011.19
2022-11-01T01:02:13.045Z,1011.08
2022-11-01T01:03:13.289Z,1010.83
2022-11-01T01:04:13.213Z,1010.77
2022-11-01T01:05:13.057Z,1010.55
2022-11-01T01:06:12.918Z,1010.59
2022-11-01T01:07:12.805Z,1010.78
2022-11-01T01:08:13.727Z,1010.86
2022-11-01T01:09:13.842Z,1010.96
2022-11-01T01:10:14.016Z,1010.97
2022-11-01T01:11:13.259Z,1010.89
2022-11-01T01:12:13.254Z,1010.82
2022-11-01T01:13:13.218Z,1010.82
2022-11-01T01:14:13.183Z,1010.88
2022-11-01T01:15:13.205Z,1010.90
2022-11-01T01:16:13.109Z,1010.90
2022-11-01T01:17:13.196Z,1010.94
2022-11-01T01:18:13.218Z,1010.84
2022-11-01T01:19:13.233Z,1010.90
2022-11-01T01:20:13.510Z,1010.85
2022-11-01T01:21:13.527Z,1010.87
2022-11-01T01:22:13.832Z,1010.84
2022-11-01T01:23:13.668Z,1010.83
2022-11-01T01:24:13.852Z,1010.87
2022-11-01T01:25:13.674Z,1010.88
2022-11-01T01:26:13.613Z,1010.95
2022-11-01T01:27:13.552Z,1010.90
2022-11-01T01:28:13.828Z,1010.98
2022-11-01T01:29:18.969Z,1010.98
2022-11-01T01:30:13.052Z,1010.97
2022-11-01T01:31:13.122Z,1011.01
2022-11-01T01:32:13.086Z,1010.96
2022-11-01T01:34:12.823Z,1010.90
2022-11-01T01:35:13.720Z,1010.84
2022-11-01T01:36:13.959Z,1010.86
2022-11-01T01:37:13.134Z,1010.82
2022-11-01T01:38:13.340Z,1010.86
2022-11-01T01:39:13.256Z,1010.87
2022-11-01T01:40:13.341Z,1010.83
2022-11-01T01:41:13.594Z,1010.75
2022-11-01T01:42:13.763Z,1010.78
2022-11-01T01:43:13.737Z,1010.73
2022-11-01T01:44:13.849Z,1010.78
2022-11-01T01:45:13.952Z,1010.75
2022-11-01T01:46:13.074Z,1010.79
2022-11-01T01:47:13.083Z,1010.85
2022-11-01T01:48:13.149Z,1010.75
2022-11-01T01:49:13.215Z,1010.67
2022-11-01T01:50:13.135Z,1010.68
2022-11-01T01:51:13.048Z,1010.61
2022-11-01T01:52:13.053Z,1010.64
2022-11-01T01:53:13.315Z,1010.61
2022-11-01T01:54:13.269Z,1010.51
2022-11-01T01:55:13.169Z,1010.53
2022-11-01T01:56:13.382Z,1010.51
2022-11-01T01:57:13.361Z,1010.51
2022-11-01T01:58:13.243Z,1010.52
2022-11-01T01:59:13.485Z,1010.51
2022-11-01T02:00:13.426Z,1010.47
2022-11-01T02:01:13.740Z,1010.44
2022-11-01T02:02:13.893Z,1010.56
2022-11-01T02:03:12.905Z,1010.43
2022-11-01T02:04:13.089Z,1010.39
2022-11-01T02:05:13.017Z,1010.38
2022-11-01T02:06:13.045Z,1010.32
2022-11-01T02:07:13.049Z,1010.39
2022-11-01T02:08:18.017Z,1010.47
2022-11-01T02:09:13.077Z,1010.47
2022-11-01T02:10:13.198Z,1010.51
2022-11-01T02:11:13.252Z,1010.43
2022-11-01T02:12:13.263Z,1010.36
2022-11-01T02:13:13.397Z,1010.38
2022-11-01T02:14:13.555Z,1010.40
2022-11-01T02:15:13.611Z,1010.40
2022-11-01T02:16:13.460Z,1010.42
2022-11-01T02:17:13.330Z,1010.49
2022-11-01T02:18:13.205Z,1010.46
2022-11-01T02:19:13.205Z,1010.41
2022-11-01T02:20:13.072Z,1010.40
2022-11-01T02:21:13.007Z,1010.45
2022-11-01T02:22:12.917Z,1010.43
2022-11-01T02:23:12.826Z,1010.40
2022-11-01T02:24:13.861Z,1010.40
2022-11-01T02:25:13.756Z,1010.42
2022-11-01T02:26:14.239Z,1010.39
2022-11-01T02:27:13.370Z,1010.39
2022-11-01T02:28:13.262Z,1010.43
2022-11-01T02:29:13.256Z,1010.46
2022-11-01T02:30:13.266Z,1010.39
2022-11-01T02:31:13.274Z,1010.42
2022-11-01T02:32:13.512Z,1010.44
2022-11-01T02:33:13.376Z,1010.49
2022-11-01T02:34:13.351Z,1010.46
2022-11-01T02:35:13.250Z,1010.45
2022-11-01T02:36:13.383Z,1010.46
2022-11-01T02:37:13.520Z,1010.45
2022-11-01T02:38:13.742Z,1010.44
2022-11-01T02:40:13.244Z,1010.54
2022-11-01T02:41:13.259Z,1010.47
2022-11-01T02:42:13.465Z,1010.54
2022-11-01T02:43:13.582Z,1010.55
2022-11-01T02:44:13.714Z,1010.55
2022-11-01T02:45:13.689Z,1010.58
2022-11-01T02:46:13.644Z,1010.60
2022-11-01T02:47:13.744Z,1010.55
2022-11-01T02:48:13.980Z,1010.57
2022-11-01T02:49:13.004Z,1010.59
2022-11-01T02:50:12.936Z,1010.58
2022-11-01T02:51:12.848Z,1010.50
2022-11-01T02:52:13.951Z,1010.47
2022-11-01T02:53:12.800Z,1010.54
2022-11-01T02:54:13.893Z,1010.51
2022-11-01T02:55:12.857Z,1010.49
2022-11-01T02:56:14.111Z,1010.56
2022-11-01T02:57:13.225Z,1010.53
2022-11-01T02:58:13.332Z,1010.49
2022-11-01T02:59:13.428Z,1010.52
2022-11-01T03:00:13.264Z,1010.52
2022-11-01T03:01:13.534Z,1010.45
2022-11-01T03:02:13.613Z,1010.42
2022-11-01T03:03:13.614Z,1010.47
2022-11-01T03:04:13.712Z,1010.47
2022-11-01T03:05:13.665Z,1010.44
2022-11-01T03:06:13.673Z,1010.42
2022-11-01T03:07:13.817Z,1010.53
2022-11-01T03:08:14.773Z,1010.43
2022-11-01T03:09:13.912Z,1010.44
2022-11-01T03:10:12.819Z,1010.48
2022-11-01T03:11:13.684Z,1010.43
2022-11-01T03:12:13.614Z,1010.47
2022-11-01T03:13:13.725Z,1010.46
2022-11-01T03:14:13.836Z,1010.49
2022-11-01T03:15:13.988Z,1010.43
2022-11-01T03:16:12.981Z,1010.43
2022-11-01T03:17:13.059Z,1010.46
2022-11-01T03:18:12.997Z,1010.51
2022-11-01T03:19:12.903Z,1010.48
2022-11-01T03:20:13.011Z,1010.44
2022-11-01T03:21:13.205Z,1010.45
2022-11-01T03:22:13.554Z,1010.51
2022-11-01T03:23:13.813Z,1010.51
2022-11-01T03:24:13.802Z,1010.53
2022-11-01T03:25:13.646Z,1010.53
2022-11-01T03:26:13.614Z,1010.48
2022-11-01T03:27:13.820Z,1010.58
2022-11-01T03:28:13.761Z,1010.55
2022-11-01T03:29:13.658Z,1010.56
2022-11-01T03:30:13.947Z,1010.57
2022-11-01T03:31:13.203Z,1010.58
2022-11-01T03:32:13.317Z,1010.52
2022-11-01T03:33:13.206Z,1010.55
2022-11-01T03:34:13.163Z,1010.56
2022-11-01T03:35:13.190Z,1010.59
2022-11-01T03:36:14.734Z,1010.60
2022-11-01T03:37:13.185Z,1010.63
2022-11-01T03:38:13.118Z,1010.61
2022-11-01T03:39:13.257Z,1010.70
2022-11-01T03:40:13.277Z,1010.65
2022-11-01T03:41:13.677Z,1010.67
2022-11-01T03:42:13.559Z,1010.63
2022-11-01T03:43:13.560Z,1010.65
2022-11-01T03:44:13.540Z,1010.66
2022-11-01T03:45:13.688Z,1010.58
2022-11-01T03:46:13.806Z,1010.74
2022-11-01T03:47:13.742Z,1010.70
2022-11-01T03:48:13.952Z,1010.76
2022-11-01T03:49:13.222Z,1010.78
2022-11-01T03:50:13.212Z,1010.79
2022-11-01T03:51:13.107Z,1010.80
2022-11-01T03:52:13.063Z,1010.80
2022-11-01T03:53:12.980Z,1010.73
2022-11-01T03:54:14.228Z,1010.71
2022-11-01T03:55:13.395Z,1010.76
2022-11-01T03:56:13.331Z,1010.78
2022-11-01T03:57:13.324Z,1010.82
2022-11-01T03:58:13.777Z,1010.87
2022-11-01T03:59:13.855Z,1010.90
2022-11-01T04:00:13.837Z,1010.91
2022-11-01T04:01:13.994Z,1010.91
2022-11-01T04:02:13.473Z,1010.88
2022-11-01T04:03:13.731Z,1010.92
2022-11-01T04:04:13.792Z,1010.94
2022-11-01T04:05:13.799Z,1010.96
2022-11-01T04:06:13.971Z,1010.96
2022-11-01T04:07:12.902Z,1010.94
2022-11-01T04:08:13.009Z,1010.82
2022-11-01T04:09:13.281Z,1010.79
2022-11-01T04:10:13.294Z,1010.84
2022-11-01T04:11:13.117Z,1010.85
2022-11-01T04:12:13.342Z,1010.89
2022-11-01T04:13:18.432Z,1010.96
2022-11-01T04:14:13.401Z,1010.98
2022-11-01T04:15:13.400Z,1010.97
2022-11-01T04:16:13.682Z,1011.01
2022-11-01T04:17:14.173Z,1011.04
2022-11-01T04:18:13.136Z,1011.09
2022-11-01T04:19:13.393Z,1011.08
2022-11-01T04:20:13.229Z,1011.01
2022-11-01T04:21:13.150Z,1011.02
2022-11-01T04:22:13.087Z,1011.03
2022-11-01T04:23:13.182Z,1010.98
2022-11-01T04:24:13.005Z,1011.03
2022-11-01T04:25:13.048Z,1011.06
2022-11-01T04:26:13.377Z,1011.07
2022-11-01T04:27:13.527Z,1011.07
2022-11-01T04:28:13.514Z,1011.13
2022-11-01T04:29:13.362Z,1011.11
2022-11-01T04:30:13.309Z,1011.09
2022-11-01T04:31:13.478Z,1011.13
2022-11-01T04:32:13.448Z,1011.05
2022-11-01T04:33:13.510Z,1011.09
2022-11-01T04:34:13.316Z,1011.02
2022-11-01T04:35:13.218Z,1011.01
2022-11-01T04:36:13.269Z,1011.12
2022-11-01T04:37:13.370Z,1011.10
2022-11-01T04:38:13.415Z,1011.16
2022-11-01T04:39:13.733Z,1011.07
2022-11-01T04:40:13.769Z,1011.10
2022-11-01T04:41:13.854Z,1011.12
2022-11-01T04:42:13.994Z,1011.10
2022-11-01T04:43:12.924Z,1011.12
2022-11-01T04:44:12.887Z,1011.16
2022-11-01T04:45:12.719Z,1011.16
2022-11-01T04:46:13.881Z,1011.20
2022-11-01T04:47:13.696Z,1011.15
2022-11-01T04:48:13.658Z,1011.20
2022-11-01T04:49:13.677Z,1011.18
2022-11-01T04:50:13.614Z,1011.20
2022-11-01T04:51:14.781Z,1011.32
2022-11-01T04:52:13.822Z,1011.28
2022-11-01T04:53:13.769Z,1011.32
2022-11-01T04:54:13.866Z,1011.17
2022-11-01T04:55:13.874Z,1011.32
2022-11-01T04:56:14.216Z,1011.32
2022-11-01T04:57:13.146Z,1011.26
2022-11-01T04:58:13.005Z,1011.28
2022-11-01T04:59:12.924Z,1011.32
2022-11-01T05:00:13.019Z,1011.30
2022-11-01T05:01:13.136Z,1011.36
2022-11-01T05:02:13.237Z,1011.35
2022-11-01T05:03:13.615Z,1011.44
2022-11-01T05:04:14.025Z,1011.41
2022-11-01T05:05:13.088Z,1011.35
2022-11-01T05:06:13.214Z,1011.41
2022-11-01T05:07:13.443Z,1011.43
2022-11-01T05:08:13.487Z,1011.42
2022-11-01T05:09:13.403Z,1011.48
2022-11-01T05:10:13.359Z,1011.48
2022-11-01T05:11:13.724Z,1011.43
2022-11-01T05:12:13.883Z,1011.44
2022-11-01T05:13:13.850Z,1011.47
2022-11-01T05:14:13.773Z,1011.44
2022-11-01T05:15:13.682Z,1011.45
2022-11-01T05:16:19.504Z,1011.44
2022-11-01T05:17:13.261Z,1011.40
2022-11-01T05:18:13.304Z,1011.39
2022-11-01T05:19:13.189Z,1011.39
2022-11-01T05:20:13.315Z,1011.40
2022-11-01T05:21:13.311Z,1011.49
2022-11-01T05:22:13.330Z,1011.45
2022-11-01T05:23:13.278Z,1011.51
2022-11-01T05:24:13.343Z,1011.59
2022-11-01T05:25:13.442Z,1011.58
2022-11-01T05:26:13.770Z,1011.58
2022-11-01T05:27:14.041Z,1011.56
2022-11-01T05:28:12.903Z,1011.59
2022-11-01T05:29:24.460Z,1011.56
2022-11-01T05:30:13.449Z,1011.60
2022-11-01T05:31:13.443Z,1011.62
2022-11-01T05:32:13.406Z,1011.57
2022-11-01T05:33:13.359Z,1011.64
2022-11-01T05:34:13.240Z,1011.66
2022-11-01T05:35:13.165Z,1011.63
2022-11-01T05:36:13.131Z,1011.64
2022-11-01T05:37:13.032Z,1011.64
2022-11-01T05:38:12.848Z,1011.67
2022-11-01T05:39:14.167Z,1011.67
2022-11-01T05:40:13.197Z,1011.69
2022-11-01T05:42:13.364Z,1011.70
2022-11-01T05:43:13.178Z,1011.72
2022-11-01T05:44:13.022Z,1011.75
2022-11-01T05:45:12.917Z,1011.73
2022-11-01T05:46:12.867Z,1011.75
2022-11-01T05:47:17.444Z,1011.79
2022-11-01T05:48:13.947Z,1011.74
2022-11-01T05:49:12.882Z,1011.76
2022-11-01T05:50:13.809Z,1011.76
2022-11-01T05:51:13.918Z,1011.78
2022-11-01T05:52:13.066Z,1011.78
2022-11-01T05:53:13.096Z,1011.82
2022-11-01T05:54:13.142Z,1011.85
2022-11-01T05:55:13.173Z,1011.88
2022-11-01T05:56:13.263Z,1011.88
2022-11-01T05:57:13.887Z,1011.91
2022-11-01T05:58:14.052Z,1011.97
2022-11-01T05:59:13.184Z,1011.95
2022-11-01T06:00:13.223Z,1011.93
2022-11-01T06:01:13.354Z,1011.99
2022-11-01T06:02:14.762Z,1012.04
2022-11-01T06:03:13.777Z,1012.07
2022-11-01T06:04:13.683Z,1012.06
2022-11-01T06:05:13.707Z,1012.12
2022-11-01T06:06:13.708Z,1012.08
2022-11-01T06:07:13.768Z,1012.12
2022-11-01T06:08:13.971Z,1012.11
2022-11-01T06:09:18.228Z,1012.07
2022-11-01T06:10:14.884Z,1012.08
2022-11-01T06:11:14.274Z,1012.10
2022-11-01T06:12:13.346Z,1012.15
2022-11-01T06:13:13.639Z,1012.15
2022-11-01T06:14:13.880Z,1012.16
2022-11-01T06:15:13.981Z,1012.14
2022-11-01T06:16:12.977Z,1012.13
2022-11-01T06:17:12.981Z,1012.14
2022-11-01T06:18:13.210Z,1012.22
2022-11-01T06:19:39.862Z,1012.25
2022-11-01T06:20:13.958Z,1012.21
2022-11-01T06:21:13.055Z,1012.24
2022-11-01T06:22:13.052Z,1012.27
2022-11-01T06:23:13.409Z,1012.33
2022-11-01T06:24:13.556Z,1012.36
2022-11-01T06:25:13.582Z,1012.39
2022-11-01T06:26:14.000Z,1012.40
2022-11-01T06:27:13.002Z,1012.41
2022-11-01T06:28:13.078Z,1012.41
2022-11-01T06:29:13.427Z,1012.44
2022-11-01T06:30:13.405Z,1012.47
2022-11-01T06:31:13.350Z,1012.46
2022-11-01T06:32:13.327Z,1012.47
2022-11-01T06:33:13.525Z,1012.47
2022-11-01T06:34:13.451Z,1012.54
2022-11-01T06:35:13.366Z,1012.54
2022-11-01T06:36:13.217Z,1012.58
2022-11-01T06:37:13.175Z,1012.57
2022-11-01T06:38:13.425Z,1012.62
2022-11-01T06:39:13.602Z,1012.65
2022-11-01T06:40:13.436Z,1012.67
2022-11-01T06:41:13.278Z,1012.63
2022-11-01T06:42:13.506Z,1012.69
2022-11-01T06:43:13.594Z,1012.72
2022-11-01T06:44:13.663Z,1012.74
2022-11-01T06:45:14.100Z,1012.74
2022-11-01T06:46:13.034Z,1012.78
2022-11-01T06:47:14.259Z,1012.76
2022-11-01T06:48:13.162Z,1012.77
2022-11-01T06:49:16.495Z,1012.83
2022-11-01T06:50:18.131Z,1012.80
2022-11-01T06:51:18.330Z,1012.79
2022-11-01T06:52:13.232Z,1012.89
2022-11-01T06:53:18.442Z,1012.93
2022-11-01T06:54:13.489Z,1012.92
2022-11-01T06:55:13.477Z,1012.92
2022-11-01T06:56:13.426Z,1012.90
2022-11-01T06:57:13.531Z,1012.97
2022-11-01T06:58:13.463Z,1013.03
2022-11-01T06:59:13.360Z,1012.97
2022-11-01T07:00:13.276Z,1013.05
2022-11-01T07:01:13.634Z,1013.04
2022-11-01T07:02:15.027Z,1013.10
2022-11-01T07:03:12.774Z,1013.18
2022-11-01T07:04:14.133Z,1013.10
2022-11-01T07:05:13.146Z,1013.11
2022-11-01T07:06:13.290Z,1013.20
2022-11-01T07:07:13.258Z,1013.25
2022-11-01T07:08:13.376Z,1013.25
2022-11-01T07:09:13.584Z,1013.31
2022-11-01T07:10:13.450Z,1013.18
2022-11-01T07:11:13.427Z,1013.27
2022-11-01T07:12:13.770Z,1013.29
2022-11-01T07:13:13.981Z,1013.33
2022-11-01T07:14:12.792Z,1013.51
2022-11-01T07:15:13.690Z,1013.62
2022-11-01T07:16:18.656Z,1013.63
2022-11-01T07:17:13.693Z,1013.58
2022-11-01T07:18:21.941Z,1013.55
2022-11-01T07:19:12.835Z,1013.58
2022-11-01T07:20:13.929Z,1013.64
2022-11-01T07:21:12.773Z,1013.60
2022-11-01T07:22:14.449Z,1013.66
2022-11-01T07:23:13.662Z,1013.67
2022-11-01T07:24:13.726Z,1013.77
2022-11-01T07:25:13.800Z,1013.80
2022-11-01T07:26:13.900Z,1013.77
2022-11-01T07:27:17.898Z,1013.79
2022-11-01T07:28:13.672Z,1013.83
2022-11-01T07:29:14.124Z,1013.85
2022-11-01T07:30:13.138Z,1013.88
2022-11-01T07:31:13.257Z,1013.94
2022-11-01T07:32:13.161Z,1013.98
2022-11-01T07:33:13.210Z,1013.89
2022-11-01T07:34:13.197Z,1013.85
2022-11-01T07:35:13.221Z,1013.93
2022-11-01T07:36:14.385Z,1013.98
2022-11-01T07:37:13.764Z,1014.02
2022-11-01T07:38:14.205Z,1013.97
2022-11-01T07:39:13.331Z,1014.05
2022-11-01T07:40:13.344Z,1014.08
2022-11-01T07:41:13.451Z,1014.05
2022-11-01T07:42:13.427Z,1014.11
2022-11-01T07:43:13.867Z,1014.20
2022-11-01T07:44:13.979Z,1014.23
2022-11-01T07:45:13.280Z,1014.19
2022-11-01T07:46:13.497Z,1014.20
2022-11-01T07:47:13.494Z,1014.24
2022-11-01T07:48:13.589Z,1014.38
2022-11-01T07:49:13.637Z,1014.27
2022-11-01T07:50:14.770Z,1014.33
2022-11-01T07:51:14.002Z,1014.34
2022-11-01T07:52:12.996Z,1014.33
2022-11-01T07:53:13.229Z,1014.31
2022-11-01T07:54:13.463Z,1014.33
2022-11-01T07:55:14.045Z,1014.41
2022-11-01T07:56:13.154Z,1014.36
2022-11-01T07:57:13.159Z,1014.44
2022-11-01T07:58:13.318Z,1014.42
2022-11-01T07:59:13.220Z,1014.43
2022-11-01T08:00:13.441Z,1014.40
2022-11-01T08:01:14.795Z,1014.50
2022-11-01T08:02:13.122Z,1014.55
2022-11-01T08:03:18.429Z,1014.59
2022-11-01T08:04:13.904Z,1014.62
2022-11-01T08:05:12.917Z,1014.60
2022-11-01T08:06:13.126Z,1014.67
2022-11-01T08:07:13.724Z,1014.67
2022-11-01T08:08:14.064Z,1014.70
2022-11-01T08:09:13.439Z,1014.69
2022-11-01T08:10:13.442Z,1014.76
2022-11-01T08:11:13.500Z,1014.76
2022-11-01T08:12:14.046Z,1014.80
2022-11-01T08:13:13.015Z,1014.89
2022-11-01T08:14:13.366Z,1014.82
2022-11-01T08:15:13.577Z,1014.79
2022-11-01T08:16:13.529Z,1014.84
2022-11-01T08:17:13.450Z,1014.82
2022-11-01T08:18:14.246Z,1014.84
2022-11-01T08:19:13.270Z,1014.79
2022-11-01T08:20:13.201Z,1014.87
2022-11-01T08:21:13.919Z,1014.88
2022-11-01T08:22:13.078Z,1014.89
2022-11-01T08:23:13.370Z,1014.85
2022-11-01T08:24:13.572Z,1014.82
2022-11-01T08:25:13.895Z,1014.79
2022-11-01T08:26:13.304Z,1014.97
2022-11-01T08:27:13.357Z,1014.94
2022-11-01T08:28:13.428Z,1014.97
2022-11-01T08:29:13.263Z,1014.92
2022-11-01T08:30:13.296Z,1015.01
2022-11-01T08:31:13.290Z,1014.93
2022-11-01T08:32:13.335Z,1014.96
2022-11-01T08:33:13.325Z,1015.05
2022-11-01T08:34:16.940Z,1015.03
2022-11-01T08:35:13.406Z,1015.07
2022-11-01T08:36:13.379Z,1014.99
2022-11-01T08:37:13.334Z,1015.09
2022-11-01T08:38:13.427Z,1015.09
2022-11-01T08:39:13.349Z,1015.10
2022-11-01T08:40:13.969Z,1015.07
2022-11-01T08:41:12.895Z,1015.16
2022-11-01T08:42:13.168Z,1015.18
2022-11-01T08:43:13.236Z,1015.20
2022-11-01T08:44:13.818Z,1015.20
2022-11-01T08:45:20.317Z,1015.19
2022-11-01T08:46:18.250Z,1015.21
2022-11-01T08:47:13.392Z,1015.17
2022-11-01T08:48:13.821Z,1015.20
2022-11-01T08:49:14.202Z,1015.27
2022-11-01T08:50:13.267Z,1015.30
2022-11-01T08:51:13.222Z,1015.27
2022-11-01T08:52:13.651Z,1015.28
2022-11-01T08:53:13.901Z,1015.29
2022-11-01T08:54:13.147Z,1015.32
2022-11-01T08:55:13.249Z,1015.38
2022-11-01T08:56:13.615Z,1015.25
2022-11-01T08:57:14.102Z,1015.35
2022-11-01T08:58:13.181Z,1015.46
2022-11-01T08:59:13.084Z,1015.41
2022-11-01T09:00:13.079Z,1015.42
2022-11-01T09:01:14.175Z,1015.51
2022-11-01T09:02:13.640Z,1015.42
2022-11-01T09:03:15.034Z,1015.55
2022-11-01T09:04:13.136Z,1015.56
2022-11-01T09:05:13.347Z,1015.62
2022-11-01T09:06:13.639Z,1015.59
2022-11-01T09:07:15.399Z,1015.63
2022-11-01T09:08:13.331Z,1015.68
2022-11-01T09:09:13.452Z,1015.66
2022-11-01T09:10:18.711Z,1015.64
2022-11-01T09:11:13.988Z,1015.70
2022-11-01T09:12:14.637Z,1015.68
2022-11-01T09:13:13.163Z,1015.76
2022-11-01T09:14:13.230Z,1015.71
2022-11-01T09:15:13.052Z,1015.70
2022-11-01T09:16:13.066Z,1015.75
2022-11-01T09:17:13.033Z,1015.77
2022-11-01T09:18:13.297Z,1015.73
2022-11-01T09:19:13.289Z,1015.87
2022-11-01T09:20:13.210Z,1015.77
2022-11-01T09:21:13.344Z,1015.86
2022-11-01T09:22:13.350Z,1015.90
2022-11-01T09:23:13.474Z,1015.71
2022-11-01T09:24:13.402Z,1015.85
2022-11-01T09:25:13.252Z,1015.89
2022-11-01T09:26:13.328Z,1015.90
2022-11-01T09:27:13.154Z,1015.93
2022-11-01T09:28:13.322Z,1015.97
2022-11-01T09:29:13.768Z,1015.93
2022-11-01T09:30:13.855Z,1015.83
2022-11-01T09:31:21.004Z,1015.92
2022-11-01T09:32:13.856Z,1015.92
2022-11-01T09:33:14.054Z,1015.93
2022-11-01T09:34:13.109Z,1016.02
2022-11-01T09:35:13.162Z,1015.96
2022-11-01T09:36:13.094Z,1015.95
2022-11-01T09:37:13.037Z,1016.03
2022-11-01T09:38:13.088Z,1015.98
2022-11-01T09:39:13.204Z,1015.99
2022-11-01T09:40:13.278Z,1016.07
2022-11-01T09:41:13.231Z,1016.11
2022-11-01T09:42:13.890Z,1016.08
2022-11-01T09:43:12.851Z,1016.13
2022-11-01T09:44:13.821Z,1016.10
2022-11-01T09:45:13.926Z,1016.05
2022-11-01T09:46:13.103Z,1016.04
2022-11-01T09:47:13.427Z,1016.06
2022-11-01T09:48:13.408Z,1016.10
2022-11-01T09:49:14.300Z,1016.10
2022-11-01T09:50:13.175Z,1016.06
2022-11-01T09:51:13.616Z,1016.11
2022-11-01T09:52:13.734Z,1016.14
2022-11-01T09:53:13.938Z,1016.06
2022-11-01T09:54:12.911Z,1016.17
2022-11-01T09:55:12.985Z,1016.20
2022-11-01T09:56:13.181Z,1016.26
2022-11-01T09:57:13.226Z,1016.18
2022-11-01T09:58:13.348Z,1016.19
2022-11-01T09:59:13.707Z,1016.17
2022-11-01T10:00:13.963Z,1016.18
2022-11-01T10:01:13.328Z,1016.27
2022-11-01T10:02:13.308Z,1016.25
2022-11-01T10:03:13.337Z,1016.29
2022-11-01T10:04:13.309Z,1016.33
2022-11-01T10:05:16.052Z,1016.28
2022-11-01T10:06:24.909Z,1016.34
2022-11-01T10:07:12.914Z,1016.16
2022-11-01T10:08:22.960Z,1016.27
2022-11-01T10:09:23.650Z,1016.24
2022-11-01T10:10:13.600Z,1016.28
2022-11-01T10:11:13.804Z,1016.27
2022-11-01T10:12:13.884Z,1016.16
2022-11-01T10:13:13.883Z,1016.18
2022-11-01T10:14:13.952Z,1016.17
2022-11-01T10:15:12.832Z,1016.22
2022-11-01T10:16:14.027Z,1016.25
2022-11-01T10:17:13.322Z,1016.21
2022-11-01T10:18:13.402Z,1016.21
2022-11-01T10:19:13.670Z,1016.25
2022-11-01T10:20:14.006Z,1016.24
2022-11-01T10:21:17.999Z,1016.20
2022-11-01T10:22:14.177Z,1016.22
2022-11-01T10:23:13.365Z,1016.24
2022-11-01T10:24:13.480Z,1016.21
2022-11-01T10:25:13.896Z,1016.16
2022-11-01T10:26:12.852Z,1016.21
2022-11-01T10:27:13.865Z,1016.24
2022-11-01T10:28:14.009Z,1016.22
2022-11-01T10:29:12.869Z,1016.22
2022-11-01T10:30:13.810Z,1016.23
2022-11-01T10:31:13.676Z,1016.19
2022-11-01T10:32:13.727Z,1016.23
2022-11-01T10:33:13.798Z,1016.19
2022-11-01T10:34:13.884Z,1016.18
2022-11-01T10:35:13.859Z,1016.20
2022-11-01T10:36:14.460Z,1016.29
2022-11-01T10:37:13.833Z,1016.23
2022-11-01T10:38:23.957Z,1016.28
2022-11-01T10:40:15.241Z,1016.31
2022-11-01T10:41:13.435Z,1016.25
2022-11-01T10:42:13.804Z,1016.28
2022-11-01T10:43:13.762Z,1016.23
2022-11-01T10:44:13.702Z,1016.27
2022-11-01T10:45:13.754Z,1016.29
2022-11-01T10:46:13.690Z,1016.36
2022-11-01T10:47:13.811Z,1016.33
2022-11-01T10:48:14.115Z,1016.32
2022-11-01T10:49:12.974Z,1016.35
2022-11-01T10:50:13.612Z,1016.39
2022-11-01T10:51:13.540Z,1016.29
2022-11-01T10:52:13.363Z,1016.35
2022-11-01T10:53:13.471Z,1016.17
2022-11-01T10:54:13.409Z,1016.36
2022-11-01T10:55:13.737Z,1016.28
2022-11-01T10:56:13.817Z,1016.34
2022-11-01T10:57:13.910Z,1016.28
2022-11-01T10:58:13.771Z,1016.34
2022-11-01T10:59:13.897Z,1016.32
2022-11-01T11:00:13.180Z,1016.28
2022-11-01T11:01:13.939Z,1016.26
2022-11-01T11:02:13.251Z,1016.25
2022-11-01T11:03:15.311Z,1016.27
2022-11-01T11:04:14.125Z,1016.18
2022-11-01T11:05:13.348Z,1016.25
2022-11-01T11:06:13.300Z,1016.24
2022-11-01T11:07:13.487Z,1016.23
2022-11-01T11:08:13.616Z,1016.23
2022-11-01T11:09:13.771Z,1016.22
2022-11-01T11:10:14.760Z,1016.19
2022-11-01T11:11:14.337Z,1016.26
2022-11-01T11:12:13.826Z,1016.20
2022-11-01T11:13:14.040Z,1016.32
2022-11-01T11:14:13.012Z,1016.26
2022-11-01T11:15:13.276Z,1016.21
2022-11-01T11:16:13.380Z,1016.23
2022-11-01T11:17:13.425Z,1016.21
2022-11-01T11:18:13.413Z,1016.30
2022-11-01T11:19:13.330Z,1016.15
2022-11-01T11:20:13.270Z,1016.22
2022-11-01T11:21:13.538Z,1016.24
2022-11-01T11:22:13.623Z,1016.16
2022-11-01T11:23:13.516Z,1016.24
2022-11-01T11:24:21.069Z,1016.23
2022-11-01T11:25:13.139Z,1016.22
2022-11-01T11:26:13.902Z,1016.31
2022-11-01T11:27:13.342Z,1016.35
2022-11-01T11:28:13.696Z,1016.37
2022-11-01T11:29:14.095Z,1016.36
2022-11-01T11:30:14.130Z,1016.35
2022-11-01T11:31:14.282Z,1016.43
2022-11-01T11:32:13.698Z,1016.34
2022-11-01T11:33:13.919Z,1016.36
2022-11-01T11:34:13.510Z,1016.34
2022-11-01T11:35:13.403Z,1016.30
2022-11-01T11:36:13.479Z,1016.33
2022-11-01T11:37:18.480Z,1016.34
2022-11-01T11:38:14.470Z,1016.39
2022-11-01T11:39:13.761Z,1016.46
2022-11-01T11:40:13.736Z,1016.43
2022-11-01T11:41:15.285Z,1016.39
2022-11-01T11:42:13.338Z,1016.46
2022-11-01T11:43:13.994Z,1016.43
2022-11-01T11:44:12.994Z,1016.51
2022-11-01T11:45:12.874Z,1016.49
2022-11-01T11:46:14.389Z,1016.50
2022-11-01T11:47:13.420Z,1016.53
2022-11-01T11:48:15.124Z,1016.47
2022-11-01T11:49:13.251Z,1016.58
2022-11-01T11:50:13.237Z,1016.56
2022-11-01T11:51:13.397Z,1016.52
2022-11-01T11:52:13.767Z,1016.46
2022-11-01T11:53:13.852Z,1016.57
2022-11-01T11:54:13.708Z,1016.55
2022-11-01T11:55:13.768Z,1016.54
2022-11-01T11:56:18.743Z,1016.50
2022-11-01T11:57:13.966Z,1016.50
2022-11-01T11:58:13.039Z,1016.44
2022-11-01T11:59:13.005Z,1016.44
2022-11-01T12:00:12.984Z,1016.47
2022-11-01T12:01:13.344Z,1016.50
2022-11-01T12:02:15.020Z,1016.45
2022-11-01T12:03:13.423Z,1016.48
2022-11-01T12:04:13.492Z,1016.43
2022-11-01T12:05:13.455Z,1016.48
2022-11-01T12:06:13.438Z,1016.51
2022-11-01T12:07:13.348Z,1016.51
2022-11-01T12:08:13.340Z,1016.45
2022-11-01T12:09:13.450Z,1016.43